sensor_id;sensor_type;location;lat;lon;timestamp;P1;durP1;ratioP1;P2;durP2;ratioP2
11962;SDS011;62678;52.130;5.584;2023-08-20T00:01:52;12.40;;;10.38;;
11962;SDS011;62678;52.130;5.584;2023-08-20T00:04:23;14.85;;;10.27;;
11962;SDS011;62678;52.130;5.584;2023-08-20T00:06:54;19.65;;;10.80;;
11962;SDS011;62678;52.130;5.584;2023-08-20T00:09:21;16.75;;;9.95;;
11962;SDS011;62678;52.130;5.584;2023-08-20T00:11:49;18.02;;;9.95;;
11962;SDS011;62678;52.130;5.584;2023-08-20T00:14:16;17.95;;;10.07;;
11962;SDS011;62678;52.130;5.584;2023-08-20T00:16:43;15.30;;;9.93;;
11962;SDS011;62678;52.130;5.584;2023-08-20T00:19:12;16.52;;;9.95;;
11962;SDS011;62678;52.130;5.584;2023-08-20T00:21:39;16.58;;;10.60;;
11962;SDS011;62678;52.130;5.584;2023-08-20T00:24:10;16.10;;;10.43;;
11962;SDS011;62678;52.130;5.584;2023-08-20T00:26:39;16.58;;;9.95;;
11962;SDS011;62678;52.130;5.584;2023-08-20T00:29:06;21.08;;;10.88;;
11962;SDS011;62678;52.130;5.584;2023-08-20T00:31:33;17.25;;;10.18;;
11962;SDS011;62678;52.130;5.584;2023-08-20T00:34:00;15.73;;;10.45;;
11962;SDS011;62678;52.130;5.584;2023-08-20T00:36:27;16.60;;;10.65;;
11962;SDS011;62678;52.130;5.584;2023-08-20T00:38:54;17.33;;;10.63;;
11962;SDS011;62678;52.130;5.584;2023-08-20T00:41:22;14.90;;;10.40;;
11962;SDS011;62678;52.130;5.584;2023-08-20T00:43:49;17.15;;;10.70;;
11962;SDS011;62678;52.130;5.584;2023-08-20T00:46:16;16.77;;;11.27;;
11962;SDS011;62678;52.130;5.584;2023-08-20T00:48:43;20.48;;;11.18;;
11962;SDS011;62678;52.130;5.584;2023-08-20T00:51:10;15.63;;;11.15;;
11962;SDS011;62678;52.130;5.584;2023-08-20T00:53:37;16.08;;;11.80;;
11962;SDS011;62678;52.130;5.584;2023-08-20T00:56:04;17.90;;;11.57;;
11962;SDS011;62678;52.130;5.584;2023-08-20T00:58:33;19.95;;;12.15;;
11962;SDS011;62678;52.130;5.584;2023-08-20T01:01:00;18.17;;;11.15;;
11962;SDS011;62678;52.130;5.584;2023-08-20T01:03:27;17.45;;;11.50;;
11962;SDS011;62678;52.130;5.584;2023-08-20T01:05:56;18.65;;;10.93;;
11962;SDS011;62678;52.130;5.584;2023-08-20T01:08:31;18.60;;;11.10;;
11962;SDS011;62678;52.130;5.584;2023-08-20T01:11:05;21.08;;;11.35;;
11962;SDS011;62678;52.130;5.584;2023-08-20T01:13:40;14.95;;;10.05;;
11962;SDS011;62678;52.130;5.584;2023-08-20T01:16:07;18.02;;;10.25;;
11962;SDS011;62678;52.130;5.584;2023-08-20T01:18:34;17.25;;;9.80;;
11962;SDS011;62678;52.130;5.584;2023-08-20T01:21:02;17.92;;;9.52;;
11962;SDS011;62678;52.130;5.584;2023-08-20T01:23:50;14.98;;;9.75;;
11962;SDS011;62678;52.130;5.584;2023-08-20T01:26:35;13.05;;;10.30;;
11962;SDS011;62678;52.130;5.584;2023-08-20T01:29:17;20.88;;;10.38;;
11962;SDS011;62678;52.130;5.584;2023-08-20T01:31:45;14.05;;;9.60;;
11962;SDS011;62678;52.130;5.584;2023-08-20T01:34:13;19.48;;;9.80;;
11962;SDS011;62678;52.130;5.584;2023-08-20T01:36:40;15.18;;;9.80;;
11962;SDS011;62678;52.130;5.584;2023-08-20T01:39:07;18.90;;;10.20;;
11962;SDS011;62678;52.130;5.584;2023-08-20T01:41:34;15.68;;;9.32;;
11962;SDS011;62678;52.130;5.584;2023-08-20T01:44:01;17.35;;;10.25;;
11962;SDS011;62678;52.130;5.584;2023-08-20T01:46:29;14.57;;;9.27;;
11962;SDS011;62678;52.130;5.584;2023-08-20T01:48:57;15.18;;;9.20;;
11962;SDS011;62678;52.130;5.584;2023-08-20T01:51:23;13.25;;;9.20;;
11962;SDS011;62678;52.130;5.584;2023-08-20T01:53:50;12.00;;;8.45;;
11962;SDS011;62678;52.130;5.584;2023-08-20T01:56:17;15.30;;;9.32;;
11962;SDS011;62678;52.130;5.584;2023-08-20T01:58:44;13.88;;;8.65;;
11962;SDS011;62678;52.130;5.584;2023-08-20T02:01:11;13.20;;;8.63;;
11962;SDS011;62678;52.130;5.584;2023-08-20T02:03:40;13.98;;;8.95;;
11962;SDS011;62678;52.130;5.584;2023-08-20T02:06:06;13.50;;;9.05;;
11962;SDS011;62678;52.130;5.584;2023-08-20T02:08:33;14.52;;;8.55;;
11962;SDS011;62678;52.130;5.584;2023-08-20T02:11:01;15.07;;;8.82;;
11962;SDS011;62678;52.130;5.584;2023-08-20T02:13:28;15.25;;;8.48;;
11962;SDS011;62678;52.130;5.584;2023-08-20T02:15:59;14.30;;;8.95;;
11962;SDS011;62678;52.130;5.584;2023-08-20T02:18:27;15.75;;;8.82;;
11962;SDS011;62678;52.130;5.584;2023-08-20T02:20:55;15.65;;;8.93;;
11962;SDS011;62678;52.130;5.584;2023-08-20T02:23:23;15.82;;;8.82;;
11962;SDS011;62678;52.130;5.584;2023-08-20T02:25:50;13.05;;;8.52;;
11962;SDS011;62678;52.130;5.584;2023-08-20T02:28:18;14.35;;;8.50;;
11962;SDS011;62678;52.130;5.584;2023-08-20T02:30:45;15.93;;;9.57;;
11962;SDS011;62678;52.130;5.584;2023-08-20T02:33:13;17.65;;;9.82;;
11962;SDS011;62678;52.130;5.584;2023-08-20T02:35:40;15.10;;;9.05;;
11962;SDS011;62678;52.130;5.584;2023-08-20T02:38:08;13.02;;;8.55;;
11962;SDS011;62678;52.130;5.584;2023-08-20T02:40:39;14.65;;;8.70;;
11962;SDS011;62678;52.130;5.584;2023-08-20T02:43:06;15.65;;;9.70;;
11962;SDS011;62678;52.130;5.584;2023-08-20T02:45:38;18.35;;;10.43;;
11962;SDS011;62678;52.130;5.584;2023-08-20T02:48:06;14.05;;;10.18;;
11962;SDS011;62678;52.130;5.584;2023-08-20T02:50:33;18.65;;;11.55;;
11962;SDS011;62678;52.130;5.584;2023-08-20T02:53:00;20.13;;;11.07;;
11962;SDS011;62678;52.130;5.584;2023-08-20T02:55:29;17.27;;;11.98;;
11962;SDS011;62678;52.130;5.584;2023-08-20T02:57:56;17.98;;;12.10;;
11962;SDS011;62678;52.130;5.584;2023-08-20T03:00:23;21.50;;;11.90;;
11962;SDS011;62678;52.130;5.584;2023-08-20T03:02:50;17.70;;;10.82;;
11962;SDS011;62678;52.130;5.584;2023-08-20T03:05:17;13.80;;;10.52;;
11962;SDS011;62678;52.130;5.584;2023-08-20T03:07:44;19.58;;;10.23;;
11962;SDS011;62678;52.130;5.584;2023-08-20T03:10:11;19.70;;;10.57;;
11962;SDS011;62678;52.130;5.584;2023-08-20T03:12:39;18.80;;;11.27;;
11962;SDS011;62678;52.130;5.584;2023-08-20T03:15:07;21.80;;;12.05;;
11962;SDS011;62678;52.130;5.584;2023-08-20T03:17:34;19.35;;;12.82;;
11962;SDS011;62678;52.130;5.584;2023-08-20T03:20:01;17.90;;;11.85;;
11962;SDS011;62678;52.130;5.584;2023-08-20T03:22:31;18.38;;;11.75;;
11962;SDS011;62678;52.130;5.584;2023-08-20T03:24:58;21.08;;;13.02;;
11962;SDS011;62678;52.130;5.584;2023-08-20T03:27:25;21.30;;;12.10;;
11962;SDS011;62678;52.130;5.584;2023-08-20T03:29:54;18.40;;;12.15;;
11962;SDS011;62678;52.130;5.584;2023-08-20T03:32:20;18.65;;;11.50;;
11962;SDS011;62678;52.130;5.584;2023-08-20T03:34:48;18.85;;;11.80;;
11962;SDS011;62678;52.130;5.584;2023-08-20T03:37:15;18.73;;;12.68;;
11962;SDS011;62678;52.130;5.584;2023-08-20T03:39:42;19.67;;;12.60;;
11962;SDS011;62678;52.130;5.584;2023-08-20T03:42:08;25.50;;;14.05;;
11962;SDS011;62678;52.130;5.584;2023-08-20T03:44:35;25.25;;;13.80;;
11962;SDS011;62678;52.130;5.584;2023-08-20T03:47:04;23.90;;;14.68;;
11962;SDS011;62678;52.130;5.584;2023-08-20T03:49:31;23.88;;;14.45;;
11962;SDS011;62678;52.130;5.584;2023-08-20T03:51:58;23.98;;;14.20;;
11962;SDS011;62678;52.130;5.584;2023-08-20T03:54:26;18.55;;;13.80;;
11962;SDS011;62678;52.130;5.584;2023-08-20T03:56:53;22.00;;;13.77;;
11962;SDS011;62678;52.130;5.584;2023-08-20T03:59:20;20.85;;;13.60;;
11962;SDS011;62678;52.130;5.584;2023-08-20T04:01:47;23.10;;;13.55;;
11962;SDS011;62678;52.130;5.584;2023-08-20T04:04:16;24.73;;;14.50;;
11962;SDS011;62678;52.130;5.584;2023-08-20T04:06:43;21.17;;;13.57;;
11962;SDS011;62678;52.130;5.584;2023-08-20T04:09:10;22.75;;;14.02;;
11962;SDS011;62678;52.130;5.584;2023-08-20T04:11:37;18.27;;;13.38;;
11962;SDS011;62678;52.130;5.584;2023-08-20T04:14:04;22.58;;;14.30;;
11962;SDS011;62678;52.130;5.584;2023-08-20T04:16:31;23.45;;;14.40;;
11962;SDS011;62678;52.130;5.584;2023-08-20T04:18:58;22.70;;;13.63;;
11962;SDS011;62678;52.130;5.584;2023-08-20T04:21:26;20.70;;;13.55;;
11962;SDS011;62678;52.130;5.584;2023-08-20T04:23:53;17.15;;;13.10;;
11962;SDS011;62678;52.130;5.584;2023-08-20T04:26:20;18.30;;;14.07;;
11962;SDS011;62678;52.130;5.584;2023-08-20T04:28:47;26.35;;;14.00;;
11962;SDS011;62678;52.130;5.584;2023-08-20T04:31:13;20.48;;;13.10;;
11962;SDS011;62678;52.130;5.584;2023-08-20T04:33:40;21.23;;;13.95;;
11962;SDS011;62678;52.130;5.584;2023-08-20T04:36:07;22.25;;;14.13;;
11962;SDS011;62678;52.130;5.584;2023-08-20T04:38:36;18.58;;;13.77;;
11962;SDS011;62678;52.130;5.584;2023-08-20T04:41:02;26.95;;;15.30;;
11962;SDS011;62678;52.130;5.584;2023-08-20T04:43:29;21.77;;;14.45;;
11962;SDS011;62678;52.130;5.584;2023-08-20T04:45:56;24.77;;;14.93;;
11962;SDS011;62678;52.130;5.584;2023-08-20T04:48:23;24.50;;;15.05;;
11962;SDS011;62678;52.130;5.584;2023-08-20T04:50:50;22.55;;;14.00;;
11962;SDS011;62678;52.130;5.584;2023-08-20T04:53:17;25.60;;;14.88;;
11962;SDS011;62678;52.130;5.584;2023-08-20T04:55:45;23.70;;;15.02;;
11962;SDS011;62678;52.130;5.584;2023-08-20T04:58:12;20.63;;;14.07;;
11962;SDS011;62678;52.130;5.584;2023-08-20T05:00:39;20.92;;;14.13;;
11962;SDS011;62678;52.130;5.584;2023-08-20T05:03:06;23.23;;;14.15;;
11962;SDS011;62678;52.130;5.584;2023-08-20T05:05:33;22.15;;;13.85;;
11962;SDS011;62678;52.130;5.584;2023-08-20T05:08:00;22.73;;;14.45;;
11962;SDS011;62678;52.130;5.584;2023-08-20T05:10:27;22.33;;;13.30;;
11962;SDS011;62678;52.130;5.584;2023-08-20T05:12:55;22.20;;;13.55;;
11962;SDS011;62678;52.130;5.584;2023-08-20T05:15:22;22.80;;;13.38;;
11962;SDS011;62678;52.130;5.584;2023-08-20T05:17:49;18.70;;;12.15;;
11962;SDS011;62678;52.130;5.584;2023-08-20T05:20:16;23.30;;;12.80;;
11962;SDS011;62678;52.130;5.584;2023-08-20T05:22:43;21.20;;;12.98;;
11962;SDS011;62678;52.130;5.584;2023-08-20T05:25:10;24.80;;;12.40;;
11962;SDS011;62678;52.130;5.584;2023-08-20T05:27:37;22.90;;;12.35;;
11962;SDS011;62678;52.130;5.584;2023-08-20T05:30:07;19.48;;;11.25;;
11962;SDS011;62678;52.130;5.584;2023-08-20T05:32:34;20.70;;;11.32;;
11962;SDS011;62678;52.130;5.584;2023-08-20T05:35:01;21.38;;;11.02;;
11962;SDS011;62678;52.130;5.584;2023-08-20T05:37:29;22.40;;;11.38;;
11962;SDS011;62678;52.130;5.584;2023-08-20T05:39:56;20.63;;;12.07;;
11962;SDS011;62678;52.130;5.584;2023-08-20T05:42:23;20.42;;;11.38;;
11962;SDS011;62678;52.130;5.584;2023-08-20T05:44:50;23.55;;;11.45;;
11962;SDS011;62678;52.130;5.584;2023-08-20T05:47:19;18.73;;;11.23;;
11962;SDS011;62678;52.130;5.584;2023-08-20T05:49:46;19.45;;;11.38;;
11962;SDS011;62678;52.130;5.584;2023-08-20T05:52:13;18.63;;;11.07;;
11962;SDS011;62678;52.130;5.584;2023-08-20T05:54:40;19.77;;;9.85;;
11962;SDS011;62678;52.130;5.584;2023-08-20T05:57:07;22.75;;;9.75;;
11962;SDS011;62678;52.130;5.584;2023-08-20T05:59:34;18.50;;;8.80;;
11962;SDS011;62678;52.130;5.584;2023-08-20T06:02:01;16.65;;;8.52;;
11962;SDS011;62678;52.130;5.584;2023-08-20T06:04:30;18.58;;;8.55;;
11962;SDS011;62678;52.130;5.584;2023-08-20T06:06:57;15.48;;;7.88;;
11962;SDS011;62678;52.130;5.584;2023-08-20T06:09:24;18.35;;;7.43;;
11962;SDS011;62678;52.130;5.584;2023-08-20T06:11:51;15.68;;;7.15;;
11962;SDS011;62678;52.130;5.584;2023-08-20T06:14:18;16.42;;;7.10;;
11962;SDS011;62678;52.130;5.584;2023-08-20T06:16:45;13.73;;;6.50;;
11962;SDS011;62678;52.130;5.584;2023-08-20T06:19:12;16.45;;;5.85;;
11962;SDS011;62678;52.130;5.584;2023-08-20T06:21:41;17.35;;;6.65;;
11962;SDS011;62678;52.130;5.584;2023-08-20T06:24:08;16.58;;;5.78;;
11962;SDS011;62678;52.130;5.584;2023-08-20T06:26:35;17.05;;;6.05;;
11962;SDS011;62678;52.130;5.584;2023-08-20T06:29:02;15.43;;;5.22;;
11962;SDS011;62678;52.130;5.584;2023-08-20T06:31:29;14.98;;;5.03;;
11962;SDS011;62678;52.130;5.584;2023-08-20T06:33:56;13.98;;;4.90;;
11962;SDS011;62678;52.130;5.584;2023-08-20T06:36:23;16.60;;;4.70;;
11962;SDS011;62678;52.130;5.584;2023-08-20T06:38:51;11.90;;;4.57;;
11962;SDS011;62678;52.130;5.584;2023-08-20T06:41:18;15.55;;;4.75;;
11962;SDS011;62678;52.130;5.584;2023-08-20T06:43:45;12.45;;;4.60;;
11962;SDS011;62678;52.130;5.584;2023-08-20T06:46:12;11.23;;;4.80;;
11962;SDS011;62678;52.130;5.584;2023-08-20T06:48:39;14.88;;;4.70;;
11962;SDS011;62678;52.130;5.584;2023-08-20T06:51:12;14.73;;;4.50;;
11962;SDS011;62678;52.130;5.584;2023-08-20T06:53:40;15.27;;;4.25;;
11962;SDS011;62678;52.130;5.584;2023-08-20T06:56:09;9.73;;;3.72;;
11962;SDS011;62678;52.130;5.584;2023-08-20T06:58:37;12.70;;;4.22;;
11962;SDS011;62678;52.130;5.584;2023-08-20T07:01:05;12.02;;;4.13;;
11962;SDS011;62678;52.130;5.584;2023-08-20T07:03:35;11.48;;;3.88;;
11962;SDS011;62678;52.130;5.584;2023-08-20T07:06:04;14.88;;;4.95;;
11962;SDS011;62678;52.130;5.584;2023-08-20T07:08:31;11.77;;;3.80;;
11962;SDS011;62678;52.130;5.584;2023-08-20T07:10:58;15.80;;;3.90;;
11962;SDS011;62678;52.130;5.584;2023-08-20T07:13:27;11.07;;;3.80;;
11962;SDS011;62678;52.130;5.584;2023-08-20T07:15:54;13.82;;;3.65;;
11962;SDS011;62678;52.130;5.584;2023-08-20T07:18:21;8.82;;;3.45;;
11962;SDS011;62678;52.130;5.584;2023-08-20T07:20:49;11.65;;;3.67;;
11962;SDS011;62678;52.130;5.584;2023-08-20T07:23:16;13.70;;;3.85;;
11962;SDS011;62678;52.130;5.584;2023-08-20T07:25:43;14.18;;;3.85;;
11962;SDS011;62678;52.130;5.584;2023-08-20T07:28:12;13.50;;;3.63;;
11962;SDS011;62678;52.130;5.584;2023-08-20T07:30:40;12.85;;;3.90;;
11962;SDS011;62678;52.130;5.584;2023-08-20T07:33:07;13.55;;;3.95;;
11962;SDS011;62678;52.130;5.584;2023-08-20T07:35:34;11.60;;;3.80;;
11962;SDS011;62678;52.130;5.584;2023-08-20T07:38:01;11.27;;;3.50;;
11962;SDS011;62678;52.130;5.584;2023-08-20T07:40:29;14.25;;;3.40;;
11962;SDS011;62678;52.130;5.584;2023-08-20T07:42:56;13.63;;;3.53;;
11962;SDS011;62678;52.130;5.584;2023-08-20T07:45:23;13.82;;;3.53;;
11962;SDS011;62678;52.130;5.584;2023-08-20T07:47:51;11.00;;;2.97;;
11962;SDS011;62678;52.130;5.584;2023-08-20T07:50:18;11.80;;;3.53;;
11962;SDS011;62678;52.130;5.584;2023-08-20T07:52:45;12.00;;;3.50;;
11962;SDS011;62678;52.130;5.584;2023-08-20T07:55:12;12.40;;;3.42;;
11962;SDS011;62678;52.130;5.584;2023-08-20T07:57:39;16.02;;;3.78;;
11962;SDS011;62678;52.130;5.584;2023-08-20T08:00:06;10.30;;;3.03;;
11962;SDS011;62678;52.130;5.584;2023-08-20T08:02:34;11.93;;;3.70;;
11962;SDS011;62678;52.130;5.584;2023-08-20T08:05:02;12.65;;;3.63;;
11962;SDS011;62678;52.130;5.584;2023-08-20T08:07:30;11.18;;;3.40;;
11962;SDS011;62678;52.130;5.584;2023-08-20T08:09:57;10.27;;;2.35;;
11962;SDS011;62678;52.130;5.584;2023-08-20T08:12:24;13.00;;;2.60;;
11962;SDS011;62678;52.130;5.584;2023-08-20T08:14:51;9.27;;;2.50;;
11962;SDS011;62678;52.130;5.584;2023-08-20T08:17:18;8.35;;;2.30;;
11962;SDS011;62678;52.130;5.584;2023-08-20T08:19:45;7.50;;;2.70;;
11962;SDS011;62678;52.130;5.584;2023-08-20T08:22:13;9.70;;;2.67;;
11962;SDS011;62678;52.130;5.584;2023-08-20T08:24:40;9.95;;;2.83;;
11962;SDS011;62678;52.130;5.584;2023-08-20T08:27:08;7.60;;;2.08;;
11962;SDS011;62678;52.130;5.584;2023-08-20T08:29:35;6.13;;;1.88;;
11962;SDS011;62678;52.130;5.584;2023-08-20T08:32:02;8.77;;;2.10;;
11962;SDS011;62678;52.130;5.584;2023-08-20T08:34:29;9.75;;;2.33;;
11962;SDS011;62678;52.130;5.584;2023-08-20T08:36:56;10.15;;;1.98;;
11962;SDS011;62678;52.130;5.584;2023-08-20T08:39:25;9.77;;;1.70;;
11962;SDS011;62678;52.130;5.584;2023-08-20T08:41:53;5.03;;;2.00;;
11962;SDS011;62678;52.130;5.584;2023-08-20T08:44:27;7.30;;;1.90;;
11962;SDS011;62678;52.130;5.584;2023-08-20T08:46:54;8.35;;;1.77;;
11962;SDS011;62678;52.130;5.584;2023-08-20T08:49:21;10.77;;;1.83;;
11962;SDS011;62678;52.130;5.584;2023-08-20T08:51:48;7.20;;;1.60;;
11962;SDS011;62678;52.130;5.584;2023-08-20T08:54:16;6.50;;;1.75;;
11962;SDS011;62678;52.130;5.584;2023-08-20T08:56:45;4.97;;;1.67;;
11962;SDS011;62678;52.130;5.584;2023-08-20T08:59:12;9.88;;;1.95;;
11962;SDS011;62678;52.130;5.584;2023-08-20T09:01:40;5.28;;;1.17;;
11962;SDS011;62678;52.130;5.584;2023-08-20T09:04:07;5.32;;;1.58;;
11962;SDS011;62678;52.130;5.584;2023-08-20T09:06:44;6.72;;;1.50;;
11962;SDS011;62678;52.130;5.584;2023-08-20T09:09:12;6.28;;;1.35;;
11962;SDS011;62678;52.130;5.584;2023-08-20T09:11:39;9.20;;;1.67;;
11962;SDS011;62678;52.130;5.584;2023-08-20T09:14:08;4.35;;;1.23;;
11962;SDS011;62678;52.130;5.584;2023-08-20T09:16:46;5.38;;;1.35;;
11962;SDS011;62678;52.130;5.584;2023-08-20T09:19:14;4.78;;;1.35;;
11962;SDS011;62678;52.130;5.584;2023-08-20T09:21:40;7.45;;;1.60;;
11962;SDS011;62678;52.130;5.584;2023-08-20T09:24:13;7.38;;;1.73;;
11962;SDS011;62678;52.130;5.584;2023-08-20T09:26:44;4.00;;;1.00;;
11962;SDS011;62678;52.130;5.584;2023-08-20T09:29:13;6.15;;;1.23;;
11962;SDS011;62678;52.130;5.584;2023-08-20T09:31:40;3.65;;;1.13;;
11962;SDS011;62678;52.130;5.584;2023-08-20T09:34:11;5.57;;;1.38;;
11962;SDS011;62678;52.130;5.584;2023-08-20T09:36:39;9.35;;;1.48;;
11962;SDS011;62678;52.130;5.584;2023-08-20T09:39:05;5.80;;;1.17;;
11962;SDS011;62678;52.130;5.584;2023-08-20T09:41:32;5.68;;;1.23;;
11962;SDS011;62678;52.130;5.584;2023-08-20T09:44:03;5.32;;;1.27;;
11962;SDS011;62678;52.130;5.584;2023-08-20T09:46:33;7.03;;;1.50;;
11962;SDS011;62678;52.130;5.584;2023-08-20T09:49:02;4.03;;;1.02;;
11962;SDS011;62678;52.130;5.584;2023-08-20T09:51:33;2.35;;;0.93;;
11962;SDS011;62678;52.130;5.584;2023-08-20T09:54:03;8.43;;;1.70;;
11962;SDS011;62678;52.130;5.584;2023-08-20T09:56:39;3.97;;;1.20;;
11962;SDS011;62678;52.130;5.584;2023-08-20T09:59:09;3.58;;;1.10;;
11962;SDS011;62678;52.130;5.584;2023-08-20T10:01:38;5.10;;;1.20;;
11962;SDS011;62678;52.130;5.584;2023-08-20T10:04:06;4.72;;;1.15;;
11962;SDS011;62678;52.130;5.584;2023-08-20T10:06:33;4.93;;;1.30;;
11962;SDS011;62678;52.130;5.584;2023-08-20T10:09:03;3.63;;;1.05;;
11962;SDS011;62678;52.130;5.584;2023-08-20T10:11:31;6.63;;;1.45;;
11962;SDS011;62678;52.130;5.584;2023-08-20T10:13:58;4.40;;;1.33;;
11962;SDS011;62678;52.130;5.584;2023-08-20T10:16:26;3.17;;;1.00;;
11962;SDS011;62678;52.130;5.584;2023-08-20T10:18:55;6.40;;;1.35;;
11962;SDS011;62678;52.130;5.584;2023-08-20T10:21:24;4.80;;;1.08;;
11962;SDS011;62678;52.130;5.584;2023-08-20T10:23:53;6.57;;;1.30;;
11962;SDS011;62678;52.130;5.584;2023-08-20T10:26:20;4.10;;;1.00;;
11962;SDS011;62678;52.130;5.584;2023-08-20T10:28:49;6.25;;;1.38;;
11962;SDS011;62678;52.130;5.584;2023-08-20T10:31:16;4.72;;;1.27;;
11962;SDS011;62678;52.130;5.584;2023-08-20T10:33:48;4.05;;;1.05;;
11962;SDS011;62678;52.130;5.584;2023-08-20T10:36:18;4.18;;;1.13;;
11962;SDS011;62678;52.130;5.584;2023-08-20T10:38:48;4.25;;;0.80;;
11962;SDS011;62678;52.130;5.584;2023-08-20T10:41:15;3.20;;;0.75;;
11962;SDS011;62678;52.130;5.584;2023-08-20T10:43:50;3.17;;;0.80;;
11962;SDS011;62678;52.130;5.584;2023-08-20T10:46:18;6.03;;;1.00;;
11962;SDS011;62678;52.130;5.584;2023-08-20T10:48:48;4.57;;;1.00;;
11962;SDS011;62678;52.130;5.584;2023-08-20T10:51:18;4.50;;;0.95;;
11962;SDS011;62678;52.130;5.584;2023-08-20T10:53:50;3.65;;;0.90;;
11962;SDS011;62678;52.130;5.584;2023-08-20T10:56:42;5.70;;;1.90;;
11962;SDS011;62678;52.130;5.584;2023-08-20T10:59:13;3.40;;;1.23;;
11962;SDS011;62678;52.130;5.584;2023-08-20T11:01:43;3.97;;;0.90;;
11962;SDS011;62678;52.130;5.584;2023-08-20T11:04:10;3.08;;;0.88;;
11962;SDS011;62678;52.130;5.584;2023-08-20T11:06:40;2.72;;;0.95;;
11962;SDS011;62678;52.130;5.584;2023-08-20T11:09:07;3.92;;;1.20;;
11962;SDS011;62678;52.130;5.584;2023-08-20T11:11:33;4.60;;;0.90;;
11962;SDS011;62678;52.130;5.584;2023-08-20T11:14:04;4.53;;;1.30;;
11962;SDS011;62678;52.130;5.584;2023-08-20T11:16:32;4.47;;;1.08;;
11962;SDS011;62678;52.130;5.584;2023-08-20T11:19:00;2.83;;;1.08;;
11962;SDS011;62678;52.130;5.584;2023-08-20T11:21:30;4.18;;;1.10;;
11962;SDS011;62678;52.130;5.584;2023-08-20T11:24:00;5.70;;;0.80;;
11962;SDS011;62678;52.130;5.584;2023-08-20T11:26:28;3.65;;;0.90;;
11962;SDS011;62678;52.130;5.584;2023-08-20T11:28:55;2.95;;;0.80;;
11962;SDS011;62678;52.130;5.584;2023-08-20T11:31:22;2.60;;;1.00;;
11962;SDS011;62678;52.130;5.584;2023-08-20T11:33:49;3.67;;;0.85;;
11962;SDS011;62678;52.130;5.584;2023-08-20T11:36:16;4.13;;;1.00;;
11962;SDS011;62678;52.130;5.584;2023-08-20T11:38:48;3.35;;;1.17;;
11962;SDS011;62678;52.130;5.584;2023-08-20T11:41:18;4.50;;;0.80;;
11962;SDS011;62678;52.130;5.584;2023-08-20T11:43:46;4.13;;;0.90;;
11962;SDS011;62678;52.130;5.584;2023-08-20T11:46:14;2.30;;;0.77;;
11962;SDS011;62678;52.130;5.584;2023-08-20T11:51:28;2.85;;;1.10;;
11962;SDS011;62678;52.130;5.584;2023-08-20T11:53:55;3.95;;;0.90;;
11962;SDS011;62678;52.130;5.584;2023-08-20T11:56:24;4.28;;;0.90;;
11962;SDS011;62678;52.130;5.584;2023-08-20T11:58:58;3.45;;;0.95;;
11962;SDS011;62678;52.130;5.584;2023-08-20T12:01:25;3.47;;;0.95;;
11962;SDS011;62678;52.130;5.584;2023-08-20T12:03:58;2.75;;;0.90;;
11962;SDS011;62678;52.130;5.584;2023-08-20T12:06:29;6.70;;;1.00;;
11962;SDS011;62678;52.130;5.584;2023-08-20T12:08:56;2.25;;;0.82;;
11962;SDS011;62678;52.130;5.584;2023-08-20T12:11:26;3.80;;;1.00;;
11962;SDS011;62678;52.130;5.584;2023-08-20T12:13:54;4.53;;;1.00;;
11962;SDS011;62678;52.130;5.584;2023-08-20T12:16:22;5.07;;;1.30;;
11962;SDS011;62678;52.130;5.584;2023-08-20T12:18:50;2.35;;;0.90;;
11962;SDS011;62678;52.130;5.584;2023-08-20T12:21:17;3.72;;;0.85;;
11962;SDS011;62678;52.130;5.584;2023-08-20T12:23:44;5.03;;;1.08;;
11962;SDS011;62678;52.130;5.584;2023-08-20T12:26:11;5.50;;;1.02;;
11962;SDS011;62678;52.130;5.584;2023-08-20T12:28:40;3.45;;;1.10;;
11962;SDS011;62678;52.130;5.584;2023-08-20T12:31:07;4.72;;;1.00;;
11962;SDS011;62678;52.130;5.584;2023-08-20T12:33:34;4.07;;;1.05;;
11962;SDS011;62678;52.130;5.584;2023-08-20T12:36:01;5.82;;;1.00;;
11962;SDS011;62678;52.130;5.584;2023-08-20T12:38:28;5.25;;;1.10;;
11962;SDS011;62678;52.130;5.584;2023-08-20T12:40:58;2.50;;;0.90;;
11962;SDS011;62678;52.130;5.584;2023-08-20T12:43:26;5.35;;;1.38;;
11962;SDS011;62678;52.130;5.584;2023-08-20T12:45:54;3.90;;;1.00;;
11962;SDS011;62678;52.130;5.584;2023-08-20T12:48:21;4.15;;;0.80;;
11962;SDS011;62678;52.130;5.584;2023-08-20T12:50:48;4.05;;;1.42;;
11962;SDS011;62678;52.130;5.584;2023-08-20T12:53:16;4.75;;;1.02;;
11962;SDS011;62678;52.130;5.584;2023-08-20T12:55:43;3.13;;;0.90;;
11962;SDS011;62678;52.130;5.584;2023-08-20T12:58:10;3.03;;;0.80;;
11962;SDS011;62678;52.130;5.584;2023-08-20T13:00:37;3.58;;;0.85;;
11962;SDS011;62678;52.130;5.584;2023-08-20T13:03:06;4.47;;;1.10;;
11962;SDS011;62678;52.130;5.584;2023-08-20T13:05:34;3.38;;;0.90;;
11962;SDS011;62678;52.130;5.584;2023-08-20T13:08:02;2.63;;;0.93;;
11962;SDS011;62678;52.130;5.584;2023-08-20T13:10:30;4.13;;;1.00;;
11962;SDS011;62678;52.130;5.584;2023-08-20T13:13:00;3.35;;;1.10;;
11962;SDS011;62678;52.130;5.584;2023-08-20T13:15:27;4.90;;;0.90;;
11962;SDS011;62678;52.130;5.584;2023-08-20T13:17:55;2.65;;;0.90;;
11962;SDS011;62678;52.130;5.584;2023-08-20T13:20:24;4.53;;;1.30;;
11962;SDS011;62678;52.130;5.584;2023-08-20T13:22:52;4.70;;;1.20;;
11962;SDS011;62678;52.130;5.584;2023-08-20T13:25:19;4.65;;;1.05;;
11962;SDS011;62678;52.130;5.584;2023-08-20T13:27:47;4.00;;;0.93;;
11962;SDS011;62678;52.130;5.584;2023-08-20T13:30:14;4.97;;;1.08;;
11962;SDS011;62678;52.130;5.584;2023-08-20T13:32:42;2.78;;;0.82;;
11962;SDS011;62678;52.130;5.584;2023-08-20T13:35:09;3.38;;;1.00;;
11962;SDS011;62678;52.130;5.584;2023-08-20T13:37:38;3.20;;;1.25;;
11962;SDS011;62678;52.130;5.584;2023-08-20T13:40:05;3.65;;;1.30;;
11962;SDS011;62678;52.130;5.584;2023-08-20T13:42:34;5.00;;;1.58;;
11962;SDS011;62678;52.130;5.584;2023-08-20T13:45:02;4.65;;;1.15;;
11962;SDS011;62678;52.130;5.584;2023-08-20T13:47:29;3.53;;;1.08;;
11962;SDS011;62678;52.130;5.584;2023-08-20T13:49:56;2.97;;;0.98;;
11962;SDS011;62678;52.130;5.584;2023-08-20T13:52:23;4.18;;;1.10;;
11962;SDS011;62678;52.130;5.584;2023-08-20T13:54:52;4.72;;;1.10;;
11962;SDS011;62678;52.130;5.584;2023-08-20T13:57:19;3.72;;;0.75;;
11962;SDS011;62678;52.130;5.584;2023-08-20T13:59:46;4.68;;;1.15;;
11962;SDS011;62678;52.130;5.584;2023-08-20T14:02:13;3.28;;;0.95;;
11962;SDS011;62678;52.130;5.584;2023-08-20T14:04:40;6.50;;;1.30;;
11962;SDS011;62678;52.130;5.584;2023-08-20T14:07:07;4.35;;;0.93;;
11962;SDS011;62678;52.130;5.584;2023-08-20T14:09:34;5.93;;;1.35;;
11962;SDS011;62678;52.130;5.584;2023-08-20T14:12:06;4.32;;;1.02;;
11962;SDS011;62678;52.130;5.584;2023-08-20T14:14:33;5.43;;;1.30;;
11962;SDS011;62678;52.130;5.584;2023-08-20T14:17:00;3.70;;;1.17;;
11962;SDS011;62678;52.130;5.584;2023-08-20T14:19:28;7.00;;;1.10;;
11962;SDS011;62678;52.130;5.584;2023-08-20T14:21:55;3.75;;;1.00;;
11962;SDS011;62678;52.130;5.584;2023-08-20T14:24:22;3.47;;;0.90;;
11962;SDS011;62678;52.130;5.584;2023-08-20T14:26:49;4.22;;;1.13;;
11962;SDS011;62678;52.130;5.584;2023-08-20T14:29:17;3.35;;;1.10;;
11962;SDS011;62678;52.130;5.584;2023-08-20T14:31:44;3.15;;;1.00;;
11962;SDS011;62678;52.130;5.584;2023-08-20T14:34:11;4.82;;;1.20;;
11962;SDS011;62678;52.130;5.584;2023-08-20T14:36:38;4.30;;;1.42;;
11962;SDS011;62678;52.130;5.584;2023-08-20T14:39:05;3.92;;;0.98;;
11962;SDS011;62678;52.130;5.584;2023-08-20T14:41:33;3.28;;;1.25;;
11962;SDS011;62678;52.130;5.584;2023-08-20T14:44:00;5.50;;;1.00;;